Buoy 51532

sailwx.info

Track history (hours):
 
Tides and Currents Weather Stations Pressure Air Temp Water Temp Dewpoint Dewpoint Depression Visibility Wind Speed Wind Dir Waves Ship Positions

Drifting buoy 51532

Last reported at 2015-Jul-01 05:54 UTC. Time now 2015-Jul-01 06:34 UTC.
Position N 36°12' W 133°54'.

Water temperature 20.2 ° C

Date/timePositionNaut miles runAvg speedWind from/ knotsBaromVisibWave heightAir tempDewpointWater temp
2015-Jul-01 05:54N 36°12' W 133°54'1 0.7 20.2
2015-Jul-01 03:52N 36°13' W 133°52'1 0.5 20.4
2015-Jul-01 02:18N 36°13' W 133°52'1 0.2 20.5
2015-Jun-30 22:12N 36°14' W 133°52'1 0.1 20.4
2015-Jun-30 14:58N 36°15' W 133°51'0 0.0 20.2
2015-Jun-30 14:56N 36°15' W 133°51'0 0.5 20.2
2015-Jun-30 14:04N 36°15' W 133°52'0 0.0 20.2
2015-Jun-30 14:01N 36°15' W 133°52'1 1.3 20.2
2015-Jun-30 13:17N 36°16' W 133°52'1 0.3 20.3
2015-Jun-30 10:48N 36°16' W 133°51'1 0.5 20.4
2015-Jun-30 07:54N 36°17' W 133°50'0 0.0 20.5
2015-Jun-30 07:51N 36°17' W 133°50'0 0.3 20.5
2015-Jun-30 06:08N 36°17' W 133°51'1 0.2 20.5
2015-Jun-30 00:59N 36°18' W 133°51'0 0.1 20.9
2015-Jun-30 00:02N 36°18' W 133°51'1 0.7 20.9
2015-Jun-29 23:14N 36°18' W 133°52'1 0.2 20.9
2015-Jun-29 20:36N 36°19' W 133°51'0 0.0 20.8
2015-Jun-29 19:51N 36°19' W 133°51'0 0.5 20.7
2015-Jun-29 18:56N 36°19' W 133°52'0 0.4 20.6
2015-Jun-29 18:00N 36°20' W 133°52'0 0.1 20.5
2015-Jun-29 16:08N 36°20' W 133°52'1 0.6 20.1
2015-Jun-29 15:08N 36°19' W 133°51'1 0.4 20.2
2015-Jun-29 12:53N 36°20' W 133°52'0 0.2 20.4
2015-Jun-29 10:56N 36°20' W 133°52'2 0.4 20.5
2015-Jun-29 06:30N 36°22' W 133°53'0 0.8 20.7
2015-Jun-29 05:51N 36°22' W 133°53'0 9.8 20.6
2015-Jun-29 05:48N 36°22' W 133°53'0 0.2 20.6
2015-Jun-29 04:59N 36°22' W 133°53'0 5.4 20.7
2015-Jun-29 04:55N 36°22' W 133°53'1 5.1 20.7
2015-Jun-29 04:47N 36°22' W 133°54'0 0.0 20.7
2015-Jun-29 03:59N 36°22' W 133°54'0 0.1 20.7
2015-Jun-29 01:10N 36°23' W 133°54'0 0.1 20.7
2015-Jun-29 00:10N 36°23' W 133°53'1 0.4 20.8
2015-Jun-28 20:55N 36°24' W 133°54'0 0.5 20.7
2015-Jun-28 20:04N 36°24' W 133°55'1 0.2 20.7
2015-Jun-28 15:18N 36°24' W 133°55'0 1.5 20.2
2015-Jun-28 15:01N 36°25' W 133°55'0 0.0 20.2
2015-Jun-28 14:56N 36°25' W 133°55'1 0.2 20.2
2015-Jun-28 11:04N 36°25' W 133°55'115.5 20.2
2015-Jun-28 11:00N 36°27' W 133°55'0 0.0 20.2
2015-Jun-28 09:24N 36°27' W 133°55'0 0.0 20.3
2015-Jun-28 07:47N 36°27' W 133°55'0 0.0 20.4
2015-Jun-28 06:52N 36°27' W 133°55'135.5 20.4
2015-Jun-28 06:50N 36°27' W 133°54'1 1.1 20.4
2015-Jun-28 06:11N 36°27' W 133°55'0 0.2 20.4
2015-Jun-28 03:54N 36°27' W 133°55'0 0.2 20.5
2015-Jun-28 03:01N 36°27' W 133°55'0 0.0 20.5
2015-Jun-28 02:58N 36°27' W 133°55'1 0.9 20.5
2015-Jun-28 02:07N 36°27' W 133°56'0 0.4 20.5
2015-Jun-28 01:07N 36°28' W 133°56'0 5.2 20.6
2015-Jun-28 01:04N 36°28' W 133°56'1 0.4 20.6
2015-Jun-27 22:46N 36°28' W 133°55'0 0.2 20.4
2015-Jun-27 21:06N 36°29' W 133°55'0 0.2 20.4
2015-Jun-27 18:52N 36°28' W 133°55'0 0.5 20.2
2015-Jun-27 17:57N 36°29' W 133°55'1 1.2 20.1
2015-Jun-27 17:09N 36°30' W 133°55'0 0.1 20.1
2015-Jun-27 14:00N 36°29' W 133°54'1 0.6 20.0
2015-Jun-27 13:00N 36°30' W 133°54'0 8.3 20.1
2015-Jun-27 12:57N 36°30' W 133°54'2 1.0 20.1
2015-Jun-27 11:18N 36°31' W 133°56'1 6.9 20.1
2015-Jun-27 11:10N 36°31' W 133°55'0 0.0 20.1
2015-Jun-27 05:35N 36°31' W 133°55'0 0.4 20.1
2015-Jun-27 04:47N 36°31' W 133°55'0 0.0 20.1
2015-Jun-27 03:12N 36°31' W 133°55'113.6 20.2
2015-Jun-27 03:09N 36°31' W 133°54'2 0.4 20.2
2015-Jun-26 22:59N 36°32' W 133°54'1 0.4 20.2
2015-Jun-26 21:06N 36°33' W 133°54'1 3.2
2015-Jun-26 20:49N 36°32' W 133°54'1 1.1 20.0
2015-Jun-26 19:58N 36°33' W 133°54'0 0.0 19.9
2015-Jun-26 19:12N 36°33' W 133°54'0 1.5 19.9
2015-Jun-26 19:04N 36°33' W 133°54'1 0.8 19.9
2015-Jun-26 17:32N 36°34' W 133°52'1 0.4 19.9
2015-Jun-26 16:05N 36°33' W 133°53'0 0.1 19.9
2015-Jun-26 14:02N 36°34' W 133°53'0 0.0 20.0
2015-Jun-26 13:59N 36°34' W 133°53'0 5.3 20.0
2015-Jun-26 13:56N 36°34' W 133°53'0 0.0 20.0
2015-Jun-26 13:10N 36°34' W 133°53'128.3
2015-Jun-26 13:07N 36°33' W 133°51'113.2 20.1
2015-Jun-26 13:04N 36°33' W 133°52'0 0.0 20.1
2015-Jun-26 12:50N 36°33' W 133°52'2 5.2 20.1
2015-Jun-26 12:21N 36°35' W 133°54'0 0.4 20.1
2015-Jun-26 11:22N 36°35' W 133°53'0 0.0 20.2
2015-Jun-26 09:49N 36°35' W 133°53'0 0.0 20.2
2015-Jun-26 09:44N 36°35' W 133°53'0 0.1 20.2
2015-Jun-26 07:33N 36°34' W 133°53'0 0.1 20.4
2015-Jun-26 06:53N 36°34' W 133°53'0 0.1 20.4
2015-Jun-26 05:58N 36°34' W 133°53'0 3.2 20.5
2015-Jun-26 05:50N 36°35' W 133°53'0 0.5 20.5
2015-Jun-26 05:13N 36°35' W 133°52'0 1.1 20.5
2015-Jun-26 04:52N 36°35' W 133°53'0 0.0 20.5
2015-Jun-26 04:18N 36°35' W 133°53'0 0.6 20.5
2015-Jun-26 03:37N 36°35' W 133°53'0 1.0 20.7
2015-Jun-26 03:34N 36°35' W 133°53'0 1.9 20.7
2015-Jun-26 03:20N 36°35' W 133°53'0 2.1 20.8
2015-Jun-26 03:11N 36°35' W 133°53'2 1.5 20.9
2015-Jun-26 01:58N 36°36' W 133°51'0 0.0 20.9
2015-Jun-26 01:44N 36°36' W 133°51'1 3.4 20.7
2015-Jun-26 01:26N 36°35' W 133°52'0 0.2
2015-Jun-26 00:48N 36°36' W 133°52'1 1.1 20.8
2015-Jun-26 00:17N 36°35' W 133°51'0 0.0 20.8
2015-Jun-26 00:03N 36°35' W 133°51'1 0.7 20.9
2015-Jun-25 23:05N 36°36' W 133°51'1 0.7 20.8
2015-Jun-25 21:26N 36°36' W 133°52'0 0.3 20.8
2015-Jun-25 20:17N 36°36' W 133°52'0 0.7 20.4
2015-Jun-25 19:34N 36°36' W 133°53'0 2.4 20.4
2015-Jun-25 19:29N 36°36' W 133°52'0 1.9 20.4
2015-Jun-25 19:23N 36°36' W 133°53'0 0.0
2015-Jun-25 18:39N 36°36' W 133°53'0 0.2 20.1
2015-Jun-25 17:51N 36°36' W 133°53'0 0.1 19.9
2015-Jun-25 16:56N 36°36' W 133°52'1 1.8 19.9
2015-Jun-25 16:39N 36°37' W 133°53'0 0.8 19.9
2015-Jun-25 16:17N 36°36' W 133°53'1 3.0 19.9
2015-Jun-25 15:56N 36°36' W 133°52'0 0.0 19.8
2015-Jun-25 15:53N 36°36' W 133°52'0 0.2 19.8
2015-Jun-25 14:56N 36°37' W 133°52'0 0.9 19.8
2015-Jun-25 14:37N 36°37' W 133°52'0 4.0 19.8
2015-Jun-25 14:33N 36°37' W 133°52'0 0.0 19.8
2015-Jun-25 14:28N 36°37' W 133°52'0 0.0 19.8
2015-Jun-25 14:19N 36°37' W 133°52'1 8.4 19.9
2015-Jun-25 14:14N 36°37' W 133°52'0 0.0 19.9
2015-Jun-25 14:10N 36°37' W 133°52'0 0.0
2015-Jun-25 14:08N 36°37' W 133°52'0 0.1 19.8
2015-Jun-25 13:24N 36°37' W 133°52'0 5.9 19.9
2015-Jun-25 13:21N 36°37' W 133°52'0 0.0 19.9
2015-Jun-25 13:17N 36°37' W 133°52'0 5.9 19.9
2015-Jun-25 13:14N 36°37' W 133°52'0 1.0 19.9
2015-Jun-25 12:56N 36°37' W 133°52'0 0.0 19.9
2015-Jun-25 12:50N 36°37' W 133°52'0 0.0 19.9
2015-Jun-25 12:34N 36°37' W 133°52'112.7 19.9
2015-Jun-25 12:31N 36°37' W 133°53'0 0.1 19.9
2015-Jun-25 11:41N 36°37' W 133°52'0 4.2 19.9
2015-Jun-25 11:34N 36°38' W 133°52'0 0.0 19.9
2015-Jun-25 10:02N 36°38' W 133°52'115.4 19.9
2015-Jun-25 09:59N 36°38' W 133°53'119.4 19.9
2015-Jun-25 09:56N 36°37' W 133°52'0 0.0 19.9
2015-Jun-25 07:57N 36°37' W 133°52'0 0.0 20.0
2015-Jun-25 07:54N 36°37' W 133°52'0 0.0 20.0
2015-Jun-25 07:14N 36°37' W 133°52'0 0.0 20.0
2015-Jun-25 07:10N 36°37' W 133°52'0 0.2 20.0
2015-Jun-25 06:19N 36°37' W 133°52'0 1.4 20.0
2015-Jun-25 06:11N 36°37' W 133°52'0 0.3 20.0
2015-Jun-25 05:31N 36°37' W 133°52'0 2.1 20.0
2015-Jun-25 05:24N 36°37' W 133°51'0 0.3 20.1
2015-Jun-25 03:59N 36°38' W 133°51'0 0.0 20.3
2015-Jun-25 03:48N 36°38' W 133°51'0 1.2 20.4
2015-Jun-25 03:41N 36°38' W 133°51'0 3.7 20.3
2015-Jun-25 03:33N 36°38' W 133°52'1 0.6 20.3
2015-Jun-25 02:16N 36°38' W 133°51'0 0.0 20.5
2015-Jun-25 02:07N 36°38' W 133°51'0 1.3 20.5
2015-Jun-25 01:53N 36°38' W 133°51'0 5.0 20.6
2015-Jun-25 01:50N 36°38' W 133°51'1 0.8 20.6
2015-Jun-25 00:58N 36°39' W 133°51'0 0.0 20.7
2015-Jun-25 00:42N 36°39' W 133°51'0 2.6 20.6
2015-Jun-25 00:39N 36°38' W 133°51'0 1.0 20.6
2015-Jun-25 00:15N 36°39' W 133°51'0 0.1 20.5
2015-Jun-24 23:18N 36°39' W 133°51'0 3.4 20.2
2015-Jun-24 23:16N 36°39' W 133°51'0 0.1 20.3
2015-Jun-24 21:36N 36°39' W 133°52'0 0.0 20.0
2015-Jun-24 20:38N 36°39' W 133°52'0 0.0 19.9
2015-Jun-24 19:49N 36°39' W 133°52'0 8.7 19.9
2015-Jun-24 19:46N 36°39' W 133°51'0 0.5 19.9
2015-Jun-24 19:01N 36°39' W 133°51'0 2.9 19.7
2015-Jun-24 18:55N 36°39' W 133°51'0 0.7 19.7
2015-Jun-24 18:14N 36°39' W 133°52'0 0.5 19.5
2015-Jun-24 17:18N 36°39' W 133°51'0 0.4 19.5
2015-Jun-24 16:06N 36°39' W 133°51'0 0.0 19.3
2015-Jun-24 16:04N 36°39' W 133°51'0 0.2 19.3
2015-Jun-24 14:32N 36°39' W 133°51'0 0.0 19.3
2015-Jun-24 14:26N 36°39' W 133°51'0 2.3 19.3
2015-Jun-24 14:22N 36°39' W 133°51'1 0.2 19.3
2015-Jun-24 11:51N 36°39' W 133°50'1 0.3 19.2
2015-Jun-24 10:11N 36°40' W 133°51'1 0.2 19.3
2015-Jun-24 05:54N 36°40' W 133°51'1 0.6 19.4
2015-Jun-24 04:55N 36°41' W 133°51'0 0.2 19.5
2015-Jun-24 02:03N 36°41' W 133°51'1 0.2 19.6
2015-Jun-23 21:51N 36°41' W 133°51'0 0.2 19.4
2015-Jun-23 20:08N 36°41' W 133°52'1 0.1 19.3
2015-Jun-23 16:15N 36°41' W 133°51'0 2.2 19.0
2015-Jun-23 16:02N 36°41' W 133°51'1 0.5 19.0
2015-Jun-23 13:48N 36°42' W 133°51'0 0.0 18.8
2015-Jun-23 13:42N 36°42' W 133°51'0 0.0 18.8
2015-Jun-23 12:54N 36°42' W 133°51'0 0.3
2015-Jun-23 12:08N 36°42' W 133°51'1 5.0 18.7
2015-Jun-23 11:56N 36°42' W 133°50'1 0.2 18.7
2015-Jun-23 06:54N 36°43' W 133°51'0 0.1 19.7
2015-Jun-23 04:48N 36°43' W 133°51'0 5.6 19.3
2015-Jun-23 04:45N 36°42' W 133°50'0 0.2 19.3
2015-Jun-23 03:08N 36°43' W 133°51'114.3 20.8
2015-Jun-23 03:05N 36°43' W 133°50'0 0.2 21.1
2015-Jun-23 02:13N 36°43' W 133°50'0 0.0 22.0
2015-Jun-22 22:02N 36°43' W 133°50'0 0.1 19.2
2015-Jun-22 20:18N 36°43' W 133°50'0 0.0 18.6
2015-Jun-22 19:42N 36°43' W 133°50'0 0.4 18.5
2015-Jun-22 18:52N 36°43' W 133°49'1 0.2 18.4
2015-Jun-22 14:55N 36°43' W 133°49'1 0.4 18.3
2015-Jun-22 13:09N 36°44' W 133°49'0 2.3 18.4
2015-Jun-22 13:01N 36°44' W 133°49'0 0.0 18.4
2015-Jun-22 12:19N 36°44' W 133°49'0 2.9 18.4
2015-Jun-22 12:13N 36°44' W 133°48'1 0.1 18.4
2015-Jun-22 05:41N 36°44' W 133°49'0 0.2 18.4
2015-Jun-22 04:00N 36°44' W 133°49'1 0.4 18.5
2015-Jun-22 02:01N 36°43' W 133°49'0 4.6 18.6
2015-Jun-22 01:58N 36°44' W 133°49'0 0.1 18.6
2015-Jun-22 00:49N 36°44' W 133°49'1 0.3 18.5
2015-Jun-21 22:14N 36°44' W 133°48'0 0.1 18.6
2015-Jun-21 20:49N 36°44' W 133°48'0 0.4 18.5
2015-Jun-21 20:02N 36°43' W 133°48'1 0.9 18.5
2015-Jun-21 19:08N 36°44' W 133°48'0 0.1 18.3
2015-Jun-21 16:13N 36°44' W 133°49'0 0.1 17.9
2015-Jun-21 15:04N 36°44' W 133°48'0 1.9 17.8
2015-Jun-21 15:01N 36°44' W 133°48'0 0.8 17.8
2015-Jun-21 14:38N 36°44' W 133°48'1 0.4 17.8
2015-Jun-21 12:53N 36°44' W 133°49'0 0.6 17.8
2015-Jun-21 12:18N 36°44' W 133°48'0 0.0 17.8
2015-Jun-21 10:48N 36°44' W 133°48'1 0.1 17.9
2015-Jun-21 06:50N 36°44' W 133°48'0 0.5 17.9
2015-Jun-21 06:02N 36°44' W 133°48'0 1.4 17.9
2015-Jun-21 05:46N 36°44' W 133°48'   17.9
Track history (hours):
 
Tides and Currents Weather Stations Pressure Air Temp Water Temp Dewpoint Dewpoint Depression Visibility Wind Speed Wind Dir Waves Ship Positions

Drifting buoy 51532

Last reported at 2015-Jul-01 05:54 UTC. Time now 2015-Jul-01 06:34 UTC.
Position N 36°12' W 133°54'.

Water temperature 20.2 ° C

Date/timePositionNaut miles runAvg speedWind from/ knotsBaromVisibWave heightAir tempDewpointWater temp
2015-Jul-01 05:54N 36°12' W 133°54'1 0.7 20.2
2015-Jul-01 03:52N 36°13' W 133°52'1 0.5 20.4
2015-Jul-01 02:18N 36°13' W 133°52'1 0.2 20.5
2015-Jun-30 22:12N 36°14' W 133°52'1 0.1 20.4
2015-Jun-30 14:58N 36°15' W 133°51'0 0.0 20.2
2015-Jun-30 14:56N 36°15' W 133°51'0 0.5 20.2
2015-Jun-30 14:04N 36°15' W 133°52'0 0.0 20.2
2015-Jun-30 14:01N 36°15' W 133°52'1 1.3 20.2
2015-Jun-30 13:17N 36°16' W 133°52'1 0.3 20.3
2015-Jun-30 10:48N 36°16' W 133°51'1 0.5 20.4
2015-Jun-30 07:54N 36°17' W 133°50'0 0.0 20.5
2015-Jun-30 07:51N 36°17' W 133°50'0 0.3 20.5
2015-Jun-30 06:08N 36°17' W 133°51'1 0.2 20.5
2015-Jun-30 00:59N 36°18' W 133°51'0 0.1 20.9
2015-Jun-30 00:02N 36°18' W 133°51'1 0.7 20.9
2015-Jun-29 23:14N 36°18' W 133°52'1 0.2 20.9
2015-Jun-29 20:36N 36°19' W 133°51'0 0.0 20.8
2015-Jun-29 19:51N 36°19' W 133°51'0 0.5 20.7
2015-Jun-29 18:56N 36°19' W 133°52'0 0.4 20.6
2015-Jun-29 18:00N 36°20' W 133°52'0 0.1 20.5
2015-Jun-29 16:08N 36°20' W 133°52'1 0.6 20.1
2015-Jun-29 15:08N 36°19' W 133°51'1 0.4 20.2
2015-Jun-29 12:53N 36°20' W 133°52'0 0.2 20.4
2015-Jun-29 10:56N 36°20' W 133°52'2 0.4 20.5
2015-Jun-29 06:30N 36°22' W 133°53'0 0.8 20.7
2015-Jun-29 05:51N 36°22' W 133°53'0 9.8 20.6
2015-Jun-29 05:48N 36°22' W 133°53'0 0.2 20.6
2015-Jun-29 04:59N 36°22' W 133°53'0 5.4 20.7
2015-Jun-29 04:55N 36°22' W 133°53'1 5.1 20.7
2015-Jun-29 04:47N 36°22' W 133°54'0 0.0 20.7
2015-Jun-29 03:59N 36°22' W 133°54'0 0.1 20.7
2015-Jun-29 01:10N 36°23' W 133°54'0 0.1 20.7
2015-Jun-29 00:10N 36°23' W 133°53'1 0.4 20.8
2015-Jun-28 20:55N 36°24' W 133°54'0 0.5 20.7
2015-Jun-28 20:04N 36°24' W 133°55'1 0.2 20.7
2015-Jun-28 15:18N 36°24' W 133°55'0 1.5 20.2
2015-Jun-28 15:01N 36°25' W 133°55'0 0.0 20.2
2015-Jun-28 14:56N 36°25' W 133°55'1 0.2 20.2
2015-Jun-28 11:04N 36°25' W 133°55'115.5 20.2
2015-Jun-28 11:00N 36°27' W 133°55'0 0.0 20.2
2015-Jun-28 09:24N 36°27' W 133°55'0 0.0 20.3
2015-Jun-28 07:47N 36°27' W 133°55'0 0.0 20.4
2015-Jun-28 06:52N 36°27' W 133°55'135.5 20.4
2015-Jun-28 06:50N 36°27' W 133°54'1 1.1 20.4
2015-Jun-28 06:11N 36°27' W 133°55'0 0.2 20.4
2015-Jun-28 03:54N 36°27' W 133°55'0 0.2 20.5
2015-Jun-28 03:01N 36°27' W 133°55'0 0.0 20.5
2015-Jun-28 02:58N 36°27' W 133°55'1 0.9 20.5
2015-Jun-28 02:07N 36°27' W 133°56'0 0.4 20.5
2015-Jun-28 01:07N 36°28' W 133°56'0 5.2 20.6
2015-Jun-28 01:04N 36°28' W 133°56'1 0.4 20.6
2015-Jun-27 22:46N 36°28' W 133°55'0 0.2 20.4
2015-Jun-27 21:06N 36°29' W 133°55'0 0.2 20.4
2015-Jun-27 18:52N 36°28' W 133°55'0 0.5 20.2
2015-Jun-27 17:57N 36°29' W 133°55'1 1.2 20.1
2015-Jun-27 17:09N 36°30' W 133°55'0 0.1 20.1
2015-Jun-27 14:00N 36°29' W 133°54'1 0.6 20.0
2015-Jun-27 13:00N 36°30' W 133°54'0 8.3 20.1
2015-Jun-27 12:57N 36°30' W 133°54'2 1.0 20.1
2015-Jun-27 11:18N 36°31' W 133°56'1 6.9 20.1
2015-Jun-27 11:10N 36°31' W 133°55'0 0.0 20.1
2015-Jun-27 05:35N 36°31' W 133°55'0 0.4 20.1
2015-Jun-27 04:47N 36°31' W 133°55'0 0.0 20.1
2015-Jun-27 03:12N 36°31' W 133°55'113.6 20.2
2015-Jun-27 03:09N 36°31' W 133°54'2 0.4 20.2
2015-Jun-26 22:59N 36°32' W 133°54'1 0.4 20.2
2015-Jun-26 21:06N 36°33' W 133°54'1 3.2
2015-Jun-26 20:49N 36°32' W 133°54'1 1.1 20.0
2015-Jun-26 19:58N 36°33' W 133°54'0 0.0 19.9
2015-Jun-26 19:12N 36°33' W 133°54'0 1.5 19.9
2015-Jun-26 19:04N 36°33' W 133°54'1 0.8 19.9
2015-Jun-26 17:32N 36°34' W 133°52'1 0.4 19.9
2015-Jun-26 16:05N 36°33' W 133°53'0 0.1 19.9
2015-Jun-26 14:02N 36°34' W 133°53'0 0.0 20.0
2015-Jun-26 13:59N 36°34' W 133°53'0 5.3 20.0
2015-Jun-26 13:56N 36°34' W 133°53'0 0.0 20.0
2015-Jun-26 13:10N 36°34' W 133°53'128.3
2015-Jun-26 13:07N 36°33' W 133°51'113.2 20.1
2015-Jun-26 13:04N 36°33' W 133°52'0 0.0 20.1
2015-Jun-26 12:50N 36°33' W 133°52'2 5.2 20.1
2015-Jun-26 12:21N 36°35' W 133°54'0 0.4 20.1
2015-Jun-26 11:22N 36°35' W 133°53'0 0.0 20.2
2015-Jun-26 09:49N 36°35' W 133°53'0 0.0 20.2
2015-Jun-26 09:44N 36°35' W 133°53'0 0.1 20.2
2015-Jun-26 07:33N 36°34' W 133°53'0 0.1 20.4
2015-Jun-26 06:53N 36°34' W 133°53'0 0.1 20.4
2015-Jun-26 05:58N 36°34' W 133°53'0 3.2 20.5
2015-Jun-26 05:50N 36°35' W 133°53'0 0.5 20.5
2015-Jun-26 05:13N 36°35' W 133°52'0 1.1 20.5
2015-Jun-26 04:52N 36°35' W 133°53'0 0.0 20.5
2015-Jun-26 04:18N 36°35' W 133°53'0 0.6 20.5
2015-Jun-26 03:37N 36°35' W 133°53'0 1.0 20.7
2015-Jun-26 03:34N 36°35' W 133°53'0 1.9 20.7
2015-Jun-26 03:20N 36°35' W 133°53'0 2.1 20.8
2015-Jun-26 03:11N 36°35' W 133°53'2 1.5 20.9
2015-Jun-26 01:58N 36°36' W 133°51'0 0.0 20.9
2015-Jun-26 01:44N 36°36' W 133°51'1 3.4 20.7
2015-Jun-26 01:26N 36°35' W 133°52'0 0.2
2015-Jun-26 00:48N 36°36' W 133°52'1 1.1 20.8
2015-Jun-26 00:17N 36°35' W 133°51'0 0.0 20.8
2015-Jun-26 00:03N 36°35' W 133°51'1 0.7 20.9
2015-Jun-25 23:05N 36°36' W 133°51'1 0.7 20.8
2015-Jun-25 21:26N 36°36' W 133°52'0 0.3 20.8
2015-Jun-25 20:17N 36°36' W 133°52'0 0.7 20.4
2015-Jun-25 19:34N 36°36' W 133°53'0 2.4 20.4
2015-Jun-25 19:29N 36°36' W 133°52'0 1.9 20.4
2015-Jun-25 19:23N 36°36' W 133°53'0 0.0
2015-Jun-25 18:39N 36°36' W 133°53'0 0.2 20.1
2015-Jun-25 17:51N 36°36' W 133°53'0 0.1 19.9
2015-Jun-25 16:56N 36°36' W 133°52'1 1.8 19.9
2015-Jun-25 16:39N 36°37' W 133°53'0 0.8 19.9
2015-Jun-25 16:17N 36°36' W 133°53'1 3.0 19.9
2015-Jun-25 15:56N 36°36' W 133°52'0 0.0 19.8
2015-Jun-25 15:53N 36°36' W 133°52'0 0.2 19.8
2015-Jun-25 14:56N 36°37' W 133°52'0 0.9 19.8
2015-Jun-25 14:37N 36°37' W 133°52'0 4.0 19.8
2015-Jun-25 14:33N 36°37' W 133°52'0 0.0 19.8
2015-Jun-25 14:28N 36°37' W 133°52'0 0.0 19.8
2015-Jun-25 14:19N 36°37' W 133°52'1 8.4 19.9
2015-Jun-25 14:14N 36°37' W 133°52'0 0.0 19.9
2015-Jun-25 14:10N 36°37' W 133°52'0 0.0
2015-Jun-25 14:08N 36°37' W 133°52'0 0.1 19.8
2015-Jun-25 13:24N 36°37' W 133°52'0 5.9 19.9
2015-Jun-25 13:21N 36°37' W 133°52'0 0.0 19.9
2015-Jun-25 13:17N 36°37' W 133°52'0 5.9 19.9
2015-Jun-25 13:14N 36°37' W 133°52'0 1.0 19.9
2015-Jun-25 12:56N 36°37' W 133°52'0 0.0 19.9
2015-Jun-25 12:50N 36°37' W 133°52'0 0.0 19.9
2015-Jun-25 12:34N 36°37' W 133°52'112.7 19.9
2015-Jun-25 12:31N 36°37' W 133°53'0 0.1 19.9
2015-Jun-25 11:41N 36°37' W 133°52'0 4.2 19.9
2015-Jun-25 11:34N 36°38' W 133°52'0 0.0 19.9
2015-Jun-25 10:02N 36°38' W 133°52'115.4 19.9
2015-Jun-25 09:59N 36°38' W 133°53'119.4 19.9
2015-Jun-25 09:56N 36°37' W 133°52'0 0.0 19.9
2015-Jun-25 07:57N 36°37' W 133°52'0 0.0 20.0
2015-Jun-25 07:54N 36°37' W 133°52'0 0.0 20.0
2015-Jun-25 07:14N 36°37' W 133°52'0 0.0 20.0
2015-Jun-25 07:10N 36°37' W 133°52'0 0.2 20.0
2015-Jun-25 06:19N 36°37' W 133°52'0 1.4 20.0
2015-Jun-25 06:11N 36°37' W 133°52'0 0.3 20.0
2015-Jun-25 05:31N 36°37' W 133°52'0 2.1 20.0
2015-Jun-25 05:24N 36°37' W 133°51'0 0.3 20.1
2015-Jun-25 03:59N 36°38' W 133°51'0 0.0 20.3
2015-Jun-25 03:48N 36°38' W 133°51'0 1.2 20.4
2015-Jun-25 03:41N 36°38' W 133°51'0 3.7 20.3
2015-Jun-25 03:33N 36°38' W 133°52'1 0.6 20.3
2015-Jun-25 02:16N 36°38' W 133°51'0 0.0 20.5
2015-Jun-25 02:07N 36°38' W 133°51'0 1.3 20.5
2015-Jun-25 01:53N 36°38' W 133°51'0 5.0 20.6
2015-Jun-25 01:50N 36°38' W 133°51'1 0.8 20.6
2015-Jun-25 00:58N 36°39' W 133°51'0 0.0 20.7
2015-Jun-25 00:42N 36°39' W 133°51'0 2.6 20.6
2015-Jun-25 00:39N 36°38' W 133°51'0 1.0 20.6
2015-Jun-25 00:15N 36°39' W 133°51'0 0.1 20.5
2015-Jun-24 23:18N 36°39' W 133°51'0 3.4 20.2
2015-Jun-24 23:16N 36°39' W 133°51'0 0.1 20.3
2015-Jun-24 21:36N 36°39' W 133°52'0 0.0 20.0
2015-Jun-24 20:38N 36°39' W 133°52'0 0.0 19.9
2015-Jun-24 19:49N 36°39' W 133°52'0 8.7 19.9
2015-Jun-24 19:46N 36°39' W 133°51'0 0.5 19.9
2015-Jun-24 19:01N 36°39' W 133°51'0 2.9 19.7
2015-Jun-24 18:55N 36°39' W 133°51'0 0.7 19.7
2015-Jun-24 18:14N 36°39' W 133°52'0 0.5 19.5
2015-Jun-24 17:18N 36°39' W 133°51'0 0.4 19.5
2015-Jun-24 16:06N 36°39' W 133°51'0 0.0 19.3
2015-Jun-24 16:04N 36°39' W 133°51'0 0.2 19.3
2015-Jun-24 14:32N 36°39' W 133°51'0 0.0 19.3
2015-Jun-24 14:26N 36°39' W 133°51'0 2.3 19.3
2015-Jun-24 14:22N 36°39' W 133°51'1 0.2 19.3
2015-Jun-24 11:51N 36°39' W 133°50'1 0.3 19.2
2015-Jun-24 10:11N 36°40' W 133°51'1 0.2 19.3
2015-Jun-24 05:54N 36°40' W 133°51'1 0.6 19.4
2015-Jun-24 04:55N 36°41' W 133°51'0 0.2 19.5
2015-Jun-24 02:03N 36°41' W 133°51'1 0.2 19.6
2015-Jun-23 21:51N 36°41' W 133°51'0 0.2 19.4
2015-Jun-23 20:08N 36°41' W 133°52'1 0.1 19.3
2015-Jun-23 16:15N 36°41' W 133°51'0 2.2 19.0
2015-Jun-23 16:02N 36°41' W 133°51'1 0.5 19.0
2015-Jun-23 13:48N 36°42' W 133°51'0 0.0 18.8
2015-Jun-23 13:42N 36°42' W 133°51'0 0.0 18.8
2015-Jun-23 12:54N 36°42' W 133°51'0 0.3
2015-Jun-23 12:08N 36°42' W 133°51'1 5.0 18.7
2015-Jun-23 11:56N 36°42' W 133°50'1 0.2 18.7
2015-Jun-23 06:54N 36°43' W 133°51'0 0.1 19.7
2015-Jun-23 04:48N 36°43' W 133°51'0 5.6 19.3
2015-Jun-23 04:45N 36°42' W 133°50'0 0.2 19.3
2015-Jun-23 03:08N 36°43' W 133°51'114.3 20.8
2015-Jun-23 03:05N 36°43' W 133°50'0 0.2 21.1
2015-Jun-23 02:13N 36°43' W 133°50'0 0.0 22.0
2015-Jun-22 22:02N 36°43' W 133°50'0 0.1 19.2
2015-Jun-22 20:18N 36°43' W 133°50'0 0.0 18.6
2015-Jun-22 19:42N 36°43' W 133°50'0 0.4 18.5
2015-Jun-22 18:52N 36°43' W 133°49'1 0.2 18.4
2015-Jun-22 14:55N 36°43' W 133°49'1 0.4 18.3
2015-Jun-22 13:09N 36°44' W 133°49'0 2.3 18.4
2015-Jun-22 13:01N 36°44' W 133°49'0 0.0 18.4
2015-Jun-22 12:19N 36°44' W 133°49'0 2.9 18.4
2015-Jun-22 12:13N 36°44' W 133°48'1 0.1 18.4
2015-Jun-22 05:41N 36°44' W 133°49'0 0.2 18.4
2015-Jun-22 04:00N 36°44' W 133°49'1 0.4 18.5
2015-Jun-22 02:01N 36°43' W 133°49'0 4.6 18.6
2015-Jun-22 01:58N 36°44' W 133°49'0 0.1 18.6
2015-Jun-22 00:49N 36°44' W 133°49'1 0.3 18.5
2015-Jun-21 22:14N 36°44' W 133°48'0 0.1 18.6
2015-Jun-21 20:49N 36°44' W 133°48'0 0.4 18.5
2015-Jun-21 20:02N 36°43' W 133°48'1 0.9 18.5
2015-Jun-21 19:08N 36°44' W 133°48'0 0.1 18.3
2015-Jun-21 16:13N 36°44' W 133°49'0 0.1 17.9
2015-Jun-21 15:04N 36°44' W 133°48'0 1.9 17.8
2015-Jun-21 15:01N 36°44' W 133°48'0 0.8 17.8
2015-Jun-21 14:38N 36°44' W 133°48'1 0.4 17.8
2015-Jun-21 12:53N 36°44' W 133°49'0 0.6 17.8
2015-Jun-21 12:18N 36°44' W 133°48'0 0.0 17.8
2015-Jun-21 10:48N 36°44' W 133°48'1 0.1 17.9
2015-Jun-21 06:50N 36°44' W 133°48'0 0.5 17.9
2015-Jun-21 06:02N 36°44' W 133°48'0 1.4 17.9
2015-Jun-21 05:46N 36°44' W 133°48'   17.9

Dump ship's entire track history